Time;durP1;ratioP1;P1;durP2;ratioP2;P2;SDS_P1;SDS_P2;PMS_P1;PMS_P2;Temp;Humidity;BMP_temperature;BMP_pressure;BME280_temperature;BME280_humidity;BME280_pressure;Samples;Min_cycle;Max_cycle;Signal;HPM_P1;HPM_P2
2022/06/08 00:01:55;;;;;;;11.23;7.95;;;15.20;99.90;;;;;;5075889;28;20241;-66
2022/06/08 00:04:24;;;;;;;11.85;8.35;;;15.10;99.90;;;;;;5077701;28;20247;-66
2022/06/08 00:06:53;;;;;;;10.70;7.53;;;15.10;99.90;;;;;;5077288;28;20170;-66
2022/06/08 00:09:19;;;;;;;11.85;7.97;;;15.10;99.90;;;;;;5077681;28;20650;-65
2022/06/08 00:11:46;;;;;;;12.63;9.23;;;15.10;99.90;;;;;;5075782;28;20677;-65
2022/06/08 00:14:13;;;;;;;12.98;9.90;;;15.00;99.90;;;;;;5075428;28;20197;-65
2022/06/08 00:16:39;;;;;;;13.07;9.05;;;14.90;99.90;;;;;;5075729;28;20185;-66
2022/06/08 00:19:05;;;;;;;15.70;9.70;;;14.90;99.90;;;;;;5076997;28;20170;-65
2022/06/08 00:21:31;;;;;;;16.63;9.48;;;14.90;99.90;;;;;;5076780;28;20206;-65
2022/06/08 00:23:57;;;;;;;10.98;8.60;;;14.90;99.90;;;;;;5076914;28;20627;-66
2022/06/08 00:26:24;;;;;;;11.43;9.43;;;14.90;99.90;;;;;;5077272;28;20231;-65
2022/06/08 00:28:51;;;;;;;13.82;9.95;;;15.00;99.90;;;;;;5076558;28;20673;-65
2022/06/08 00:31:18;;;;;;;16.35;11.45;;;15.00;99.90;;;;;;5076702;28;20567;-65
2022/06/08 00:33:44;;;;;;;15.90;11.23;;;15.00;99.90;;;;;;5076708;28;20178;-65
2022/06/08 00:36:10;;;;;;;15.27;11.52;;;15.00;99.90;;;;;;5076701;28;20184;-65
2022/06/08 00:38:36;;;;;;;13.98;10.20;;;14.90;99.90;;;;;;5076899;28;20174;-65
2022/06/08 00:41:07;;;;;;;18.13;11.60;;;14.90;99.90;;;;;;5076449;28;20209;-65
2022/06/08 00:43:35;;;;;;;15.95;11.15;;;14.90;99.90;;;;;;5076724;28;20245;-65
2022/06/08 00:46:02;;;;;;;19.67;12.70;;;14.90;99.90;;;;;;5076559;28;20673;-65
2022/06/08 00:48:32;;;;;;;20.35;13.07;;;14.90;99.90;;;;;;5076864;28;20256;-65
2022/06/08 00:50:58;;;;;;;17.02;12.43;;;14.80;99.90;;;;;;5075811;28;20222;-65
2022/06/08 00:53:44;;;;;;;17.63;12.45;;;14.80;99.90;;;;;;5076649;28;20170;-66
2022/06/08 00:56:15;;;;;;;19.63;13.05;;;14.90;99.90;;;;;;5076834;28;20655;-65
2022/06/08 00:58:41;;;;;;;18.98;12.57;;;14.90;99.90;;;;;;5077109;28;20634;-65
2022/06/08 01:01:07;;;;;;;18.05;12.93;;;14.90;99.90;;;;;;5077146;28;20218;-65
2022/06/08 01:03:33;;;;;;;17.65;13.35;;;14.90;99.90;;;;;;5077382;28;20182;-66
2022/06/08 01:06:14;;;;;;;23.33;15.27;;;14.90;99.90;;;;;;5076761;28;20544;-65
2022/06/08 01:08:42;;;;;;;25.60;16.30;;;14.80;99.90;;;;;;5079804;28;20158;-65
2022/06/08 01:11:17;;;;;;;22.70;15.88;;;14.80;99.90;;;;;;5080373;28;20686;-65
2022/06/08 01:13:44;;;;;;;27.23;17.48;;;14.80;99.90;;;;;;5077549;28;20189;-66
2022/06/08 01:16:12;;;;;;;25.98;17.65;;;14.80;99.90;;;;;;5077270;28;20194;-65
2022/06/08 01:18:38;;;;;;;26.98;17.55;;;14.70;99.90;;;;;;5076813;28;20753;-65
2022/06/08 01:21:23;;;;;;;26.50;17.33;;;14.70;99.90;;;;;;5076303;28;20213;-65
2022/06/08 01:23:50;;;;;;;24.33;16.50;;;14.60;99.90;;;;;;5077895;28;20568;-65
2022/06/08 01:26:39;;;;;;;29.50;18.20;;;14.60;99.90;;;;;;5075732;28;20173;-65
2022/06/08 01:29:13;;;;;;;26.10;17.08;;;14.60;99.90;;;;;;5076564;28;20180;-65
2022/06/08 01:31:39;;;;;;;27.65;17.83;;;14.60;99.90;;;;;;5076247;28;20229;-65
2022/06/08 01:34:12;;;;;;;29.08;17.88;;;14.60;99.90;;;;;;5074812;28;20205;-64
2022/06/08 01:36:58;;;;;;;25.15;15.77;;;14.60;99.90;;;;;;5075963;28;20634;-64
2022/06/08 01:39:39;;;;;;;26.67;17.65;;;14.60;99.90;;;;;;5075689;28;20174;-64
2022/06/08 01:42:20;;;;;;;26.35;18.50;;;14.60;99.90;;;;;;5076111;28;20260;-65
2022/06/08 01:48:03;;;;;;;32.30;20.10;;;14.60;99.90;;;;;;5075514;28;20154;-65
2022/06/08 01:50:56;;;;;;;33.63;19.98;;;14.50;99.90;;;;;;5075400;28;20241;-65
2022/06/08 01:53:34;;;;;;;32.67;20.75;;;14.50;99.90;;;;;;5073980;28;20547;-65
2022/06/08 01:56:21;;;;;;;31.27;19.85;;;14.50;99.90;;;;;;5075251;28;20173;-65
2022/06/08 01:59:01;;;;;;;31.70;20.05;;;14.50;99.90;;;;;;5075537;28;20166;-65
2022/06/08 02:01:40;;;;;;;27.63;18.17;;;14.50;99.90;;;;;;5074924;28;20202;-66
2022/06/08 02:04:19;;;;;;;31.05;19.50;;;14.50;99.90;;;;;;5075408;28;20181;-65
2022/06/08 02:06:57;;;;;;;29.70;19.73;;;14.50;99.90;;;;;;5073483;28;20273;-65
2022/06/08 02:09:36;;;;;;;32.63;19.70;;;14.60;99.90;;;;;;5074798;28;20168;-65
2022/06/08 02:12:05;;;;;;;30.70;19.50;;;14.60;99.90;;;;;;5075065;28;20532;-65
2022/06/08 02:14:57;;;;;;;29.98;19.35;;;14.50;99.90;;;;;;5074538;28;20211;-65
2022/06/08 02:17:32;;;;;;;27.25;17.92;;;14.50;99.90;;;;;;5074718;28;20275;-65
2022/06/08 02:20:13;;;;;;;27.65;17.40;;;14.50;99.90;;;;;;5074679;28;20166;-65
2022/06/08 02:22:47;;;;;;;28.63;19.05;;;14.50;99.90;;;;;;5074527;28;20297;-65
2022/06/08 02:25:13;;;;;;;35.33;20.65;;;14.40;99.90;;;;;;5073229;28;20624;-66
2022/06/08 02:28:16;;;;;;;31.38;19.30;;;14.40;99.90;;;;;;5074412;28;20253;-65
2022/06/08 02:30:52;;;;;;;27.45;17.23;;;14.30;99.90;;;;;;5036902;28;20606;-66
2022/06/08 02:36:28;;;;;;;26.85;16.88;;;14.20;99.90;;;;;;5074400;28;20174;-66
2022/06/08 02:39:28;;;;;;;28.08;18.25;;;14.20;99.90;;;;;;5074070;28;20162;-65
2022/06/08 02:42:01;;;;;;;28.73;18.85;;;14.10;99.90;;;;;;5066145;28;20233;-65
2022/06/08 02:44:31;;;;;;;29.20;20.73;;;14.10;99.90;;;;;;5074031;28;20154;-66
2022/06/08 02:47:32;;;;;;;29.90;18.83;;;14.10;99.90;;;;;;5074030;28;20642;-66
2022/06/08 02:50:07;;;;;;;24.73;17.30;;;14.10;99.90;;;;;;5042474;28;20654;-66
2022/06/08 02:52:33;;;;;;;28.92;18.80;;;14.00;99.90;;;;;;5073748;28;20204;-65
2022/06/08 02:54:58;;;;;;;27.23;18.02;;;14.00;99.90;;;;;;5072620;28;20174;-66
2022/06/08 02:57:45;;;;;;;29.67;18.95;;;14.00;99.90;;;;;;5073824;28;20181;-65
2022/06/08 03:00:13;;;;;;;26.42;17.50;;;13.90;99.90;;;;;;5073422;28;20181;-65
2022/06/08 03:02:55;;;;;;;24.70;17.20;;;13.90;99.90;;;;;;5072417;28;20201;-65
2022/06/08 03:05:48;;;;;;;28.25;17.63;;;13.80;99.90;;;;;;5073873;28;20170;-65
2022/06/08 03:08:23;;;;;;;26.92;16.73;;;13.80;99.90;;;;;;5073894;28;20154;-65
2022/06/08 03:10:50;;;;;;;27.25;17.10;;;13.80;99.90;;;;;;5072225;28;20273;-66
2022/06/08 03:13:24;;;;;;;23.70;15.95;;;13.70;99.90;;;;;;5073563;28;20219;-65
2022/06/08 03:15:59;;;;;;;23.60;17.00;;;13.70;99.90;;;;;;5073495;28;20217;-65
2022/06/08 03:18:25;;;;;;;25.35;16.67;;;13.60;99.90;;;;;;5072211;28;20196;-65
2022/06/08 03:20:53;;;;;;;27.13;17.90;;;13.60;99.90;;;;;;5073442;28;20191;-65
2022/06/08 03:23:19;;;;;;;27.15;17.25;;;13.60;99.90;;;;;;5074076;28;20525;-65
2022/06/08 03:25:46;;;;;;;23.25;16.02;;;13.50;99.90;;;;;;5073577;28;20248;-65
2022/06/08 03:28:13;;;;;;;23.33;16.50;;;13.50;99.90;;;;;;5073443;28;20215;-65
2022/06/08 03:30:39;;;;;;;22.85;15.65;;;13.50;99.90;;;;;;5073241;28;20661;-65
2022/06/08 03:33:05;;;;;;;21.10;15.07;;;13.40;99.90;;;;;;5072356;28;20181;-65
2022/06/08 03:35:31;;;;;;;23.23;16.15;;;13.40;99.90;;;;;;5072154;28;20537;-65
2022/06/08 03:37:59;;;;;;;22.45;15.45;;;13.50;99.90;;;;;;5073365;28;20235;-65
2022/06/08 03:40:25;;;;;;;21.25;14.98;;;13.40;99.90;;;;;;5073381;28;20189;-65
2022/06/08 03:42:51;;;;;;;23.95;15.07;;;13.40;99.90;;;;;;5073223;28;20614;-65
2022/06/08 03:45:16;;;;;;;25.45;15.30;;;13.40;99.90;;;;;;5073157;28;20170;-68
2022/06/08 03:47:46;;;;;;;21.50;14.60;;;13.30;99.90;;;;;;5073751;28;20657;-68
2022/06/08 03:50:24;;;;;;;17.58;12.52;;;13.30;99.90;;;;;;5072315;28;20657;-68
2022/06/08 03:53:07;;;;;;;20.42;12.70;;;13.20;99.90;;;;;;5073687;28;20196;-68
2022/06/08 03:55:35;;;;;;;19.55;12.25;;;13.20;99.90;;;;;;5072480;28;20174;-68
2022/06/08 03:58:01;;;;;;;18.67;12.32;;;13.20;99.90;;;;;;5073505;28;20166;-68
2022/06/08 04:00:28;;;;;;;16.27;11.70;;;13.10;99.90;;;;;;5073376;28;20275;-68
2022/06/08 04:02:55;;;;;;;15.35;11.52;;;13.10;99.90;;;;;;5072057;28;20247;-69
2022/06/08 04:05:21;;;;;;;18.60;12.43;;;13.10;99.90;;;;;;5073445;28;20736;-68
2022/06/08 04:07:47;;;;;;;16.88;12.90;;;13.20;99.90;;;;;;5073451;28;20198;-68
2022/06/08 04:10:13;;;;;;;17.80;11.65;;;13.20;99.90;;;;;;5073329;28;20177;-68
2022/06/08 04:12:39;;;;;;;18.75;12.32;;;13.30;99.90;;;;;;5073192;28;20197;-68
2022/06/08 04:15:05;;;;;;;18.15;11.63;;;13.40;99.90;;;;;;5073153;28;20554;-68
2022/06/08 04:17:31;;;;;;;19.88;12.90;;;13.50;99.90;;;;;;5073266;28;20158;-68
2022/06/08 04:19:57;;;;;;;18.08;12.65;;;13.50;99.90;;;;;;5073597;28;20710;-68
2022/06/08 04:22:30;;;;;;;19.20;12.57;;;13.60;99.90;;;;;;5073106;28;20737;-68
2022/06/08 04:25:00;;;;;;;17.27;12.02;;;13.70;99.90;;;;;;5073964;28;20157;-68
2022/06/08 04:27:26;;;;;;;16.65;11.90;;;13.80;99.90;;;;;;5076969;28;20304;-68
2022/06/08 04:29:53;;;;;;;17.15;13.07;;;13.90;99.90;;;;;;5076769;28;20178;-68
2022/06/08 04:32:20;;;;;;;20.83;13.45;;;14.00;99.90;;;;;;5077128;28;20201;-68
2022/06/08 04:34:46;;;;;;;16.80;11.15;;;14.00;99.90;;;;;;5076962;28;20178;-68
2022/06/08 04:37:12;;;;;;;20.42;13.80;;;14.10;99.90;;;;;;5076702;28;20177;-68
2022/06/08 04:39:38;;;;;;;19.48;12.13;;;14.20;99.90;;;;;;5077037;28;20544;-68
2022/06/08 04:42:05;;;;;;;23.80;13.27;;;14.30;99.90;;;;;;5077236;28;20236;-68
2022/06/08 04:44:32;;;;;;;17.88;12.25;;;14.40;99.90;;;;;;5075428;28;20177;-68
2022/06/08 04:46:59;;;;;;;18.65;13.13;;;14.50;99.90;;;;;;5076682;28;20184;-68
2022/06/08 04:49:24;;;;;;;19.70;13.25;;;14.60;99.90;;;;;;5075278;28;20174;-68
2022/06/08 04:51:50;;;;;;;21.77;13.98;;;14.60;99.90;;;;;;5076441;28;20197;-68
2022/06/08 04:54:16;;;;;;;22.48;14.25;;;14.70;99.90;;;;;;5076260;28;20249;-68
2022/06/08 04:56:42;;;;;;;22.02;15.00;;;14.70;99.90;;;;;;5076457;28;20261;-68
2022/06/08 04:59:09;;;;;;;24.52;16.02;;;14.70;99.90;;;;;;5076246;28;20173;-68
2022/06/08 05:01:35;;;;;;;17.48;13.00;;;14.70;99.90;;;;;;5075766;28;20206;-68
2022/06/08 05:04:01;;;;;;;25.48;16.33;;;14.70;99.90;;;;;;5076207;28;20166;-68
2022/06/08 05:06:27;;;;;;;26.13;16.90;;;14.70;99.90;;;;;;5074955;28;20264;-68
2022/06/08 05:08:54;;;;;;;25.30;16.75;;;14.60;99.90;;;;;;5076111;28;20178;-68
2022/06/08 05:11:20;;;;;;;24.38;15.55;;;14.60;99.90;;;;;;5074771;28;20202;-68
2022/06/08 05:13:46;;;;;;;22.95;15.05;;;14.60;99.90;;;;;;5075816;28;20201;-68
2022/06/08 05:16:12;;;;;;;22.35;15.15;;;14.60;99.90;;;;;;5075935;28;20201;-68
2022/06/08 05:18:38;;;;;;;24.75;16.13;;;14.60;99.90;;;;;;5074473;28;20178;-68
2022/06/08 05:21:04;;;;;;;24.50;14.95;;;14.60;99.90;;;;;;5074312;28;20216;-67
2022/06/08 05:23:34;;;;;;;23.40;15.88;;;14.70;99.90;;;;;;5074581;28;20651;-67
2022/06/08 05:26:00;;;;;;;26.45;16.67;;;14.70;99.90;;;;;;5075665;28;20185;-67
2022/06/08 05:28:26;;;;;;;20.98;14.38;;;14.80;99.90;;;;;;5074126;28;20175;-67
2022/06/08 05:30:53;;;;;;;23.95;15.23;;;15.00;99.90;;;;;;5074105;28;20188;-67
2022/06/08 05:33:20;;;;;;;27.23;16.85;;;15.10;99.90;;;;;;5075541;28;20160;-67
2022/06/08 05:35:46;;;;;;;23.50;15.73;;;15.20;99.90;;;;;;5075340;28;20173;-68
2022/06/08 05:38:12;;;;;;;23.83;14.13;;;15.40;99.90;;;;;;5075113;28;20178;-67
2022/06/08 05:40:38;;;;;;;23.52;15.43;;;15.50;99.90;;;;;;5074057;28;20237;-67
2022/06/08 05:43:10;;;;;;;23.20;14.55;;;15.50;99.90;;;;;;5074060;28;20204;-67
2022/06/08 05:45:38;;;;;;;18.27;12.65;;;15.60;99.90;;;;;;5075148;28;20661;-67
2022/06/08 05:48:04;;;;;;;17.58;11.98;;;15.60;99.90;;;;;;5075529;28;20173;-67
2022/06/08 05:50:31;;;;;;;22.00;14.15;;;15.70;99.90;;;;;;5075506;28;20178;-67
2022/06/08 05:52:57;;;;;;;15.65;10.98;;;15.80;99.90;;;;;;5075119;28;20205;-67
2022/06/08 05:55:24;;;;;;;17.85;11.77;;;15.90;99.90;;;;;;5073756;28;20178;-67
2022/06/08 05:57:51;;;;;;;14.45;10.25;;;15.90;99.90;;;;;;5075077;28;20174;-67
2022/06/08 06:00:20;;;;;;;17.42;11.60;;;15.90;99.90;;;;;;5073220;28;20261;-67
2022/06/08 06:02:46;;;;;;;21.30;11.15;;;15.90;99.90;;;;;;5074795;28;20189;-67
2022/06/08 06:05:14;;;;;;;14.52;9.82;;;15.80;99.90;;;;;;5075172;28;20261;-67
2022/06/08 06:07:42;;;;;;;14.68;10.43;;;15.80;99.90;;;;;;5075089;28;20502;-67
2022/06/08 06:10:09;;;;;;;12.90;9.70;;;15.90;99.90;;;;;;5073413;28;20174;-67
2022/06/08 06:12:35;;;;;;;16.40;11.00;;;15.90;99.90;;;;;;5074636;28;20236;-67
2022/06/08 06:15:02;;;;;;;15.90;9.75;;;15.80;99.90;;;;;;5074328;28;20189;-67
2022/06/08 06:17:29;;;;;;;14.93;9.13;;;15.90;99.90;;;;;;5074725;28;20678;-67
2022/06/08 06:19:56;;;;;;;13.20;8.43;;;16.10;99.90;;;;;;5074527;28;20520;-67
2022/06/08 06:22:21;;;;;;;11.85;8.55;;;16.10;99.90;;;;;;5074392;28;20686;-67
2022/06/08 06:24:47;;;;;;;10.02;7.82;;;16.20;99.90;;;;;;5074316;28;20178;-67
2022/06/08 06:27:13;;;;;;;13.00;8.25;;;16.30;99.90;;;;;;5073393;28;20181;-67
2022/06/08 06:29:39;;;;;;;8.90;6.70;;;16.40;99.90;;;;;;5073184;28;20204;-67
2022/06/08 06:32:10;;;;;;;10.10;6.55;;;16.50;99.90;;;;;;5074068;28;20222;-67
2022/06/08 06:34:37;;;;;;;13.38;6.82;;;16.50;99.90;;;;;;5074717;28;20204;-67
2022/06/08 06:37:03;;;;;;;9.23;6.35;;;16.50;99.90;;;;;;5073149;28;20642;-67
2022/06/08 06:39:29;;;;;;;7.28;5.93;;;16.60;99.90;;;;;;5074036;28;20230;-67
2022/06/08 06:41:57;;;;;;;7.78;5.85;;;16.60;99.90;;;;;;5074016;28;20550;-67
2022/06/08 06:44:23;;;;;;;8.00;5.47;;;16.70;99.90;;;;;;5074060;28;20611;-67
2022/06/08 06:46:49;;;;;;;7.07;5.43;;;16.70;99.90;;;;;;5073914;28;20174;-68
2022/06/08 06:49:15;;;;;;;6.85;5.15;;;16.70;99.90;;;;;;5072377;28;20173;-68
2022/06/08 06:51:41;;;;;;;7.30;5.03;;;16.80;99.90;;;;;;5072867;28;20733;-68
2022/06/08 06:54:09;;;;;;;7.15;4.63;;;16.70;99.90;;;;;;5074667;28;20533;-68
2022/06/08 06:56:35;;;;;;;7.65;4.85;;;16.60;99.90;;;;;;5074518;28;20694;-68
2022/06/08 06:59:02;;;;;;;5.75;4.65;;;16.60;99.90;;;;;;5074050;28;20252;-68
2022/06/08 07:01:29;;;;;;;4.80;4.30;;;16.60;99.90;;;;;;5073965;28;20205;-68
2022/06/08 07:03:54;;;;;;;7.75;4.68;;;16.70;99.90;;;;;;5074775;28;20667;-68
2022/06/08 07:06:20;;;;;;;5.45;4.53;;;16.80;99.90;;;;;;5074956;28;20198;-72
2022/06/08 07:08:46;;;;;;;5.65;3.90;;;16.90;99.90;;;;;;5074402;28;20177;-68
2022/06/08 07:11:35;;;;;;;7.25;3.95;;;17.00;99.90;;;;;;5072757;28;20200;-68
2022/06/08 07:14:03;;;;;;;5.68;3.65;;;17.00;99.90;;;;;;5073934;28;20265;-68
2022/06/08 07:16:29;;;;;;;5.88;3.80;;;17.10;99.90;;;;;;5073615;28;20180;-68
2022/06/08 07:18:55;;;;;;;4.40;3.75;;;17.10;99.90;;;;;;5074358;28;20178;-68
2022/06/08 07:21:21;;;;;;;5.22;3.63;;;17.20;99.90;;;;;;5072596;28;20241;-68
2022/06/08 07:23:48;;;;;;;4.35;3.30;;;17.20;99.90;;;;;;5072749;28;20642;-68
2022/06/08 07:26:13;;;;;;;3.60;3.10;;;17.40;99.90;;;;;;5073966;28;20239;-67
2022/06/08 07:28:40;;;;;;;3.30;3.00;;;17.50;99.90;;;;;;5072632;28;20580;-68
2022/06/08 07:31:06;;;;;;;2.97;2.67;;;17.60;99.90;;;;;;5073801;28;20202;-68
2022/06/08 07:33:34;;;;;;;4.00;3.15;;;17.70;99.90;;;;;;5074383;28;20315;-68
2022/06/08 07:36:01;;;;;;;2.85;2.65;;;17.80;99.90;;;;;;5072765;28;20186;-68
2022/06/08 07:38:26;;;;;;;3.25;2.78;;;17.80;99.90;;;;;;5074068;28;20197;-68
2022/06/08 07:40:52;;;;;;;3.80;2.92;;;17.90;99.90;;;;;;5074107;28;20197;-72
2022/06/08 07:43:22;;;;;;;2.83;2.40;;;17.90;99.90;;;;;;5074002;28;20622;-66
2022/06/08 07:45:48;;;;;;;2.35;2.15;;;18.00;99.90;;;;;;5072241;28;20173;-66
2022/06/08 07:50:58;;;;;;;3.38;2.40;;;18.20;99.90;;;;;;5074509;28;20605;-65
2022/06/08 07:53:24;;;;;;;3.13;2.60;;;18.30;99.90;;;;;;5073135;28;20193;-65
2022/06/08 07:55:50;;;;;;;2.60;2.20;;;18.30;99.90;;;;;;5076145;28;20186;-65
2022/06/08 07:58:16;;;;;;;2.35;2.22;;;18.40;99.90;;;;;;5073157;28;20181;-67
2022/06/08 08:00:47;;;;;;;2.05;1.95;;;18.40;99.90;;;;;;5076683;28;20250;-67
2022/06/08 08:03:16;;;;;;;2.60;2.40;;;18.50;99.90;;;;;;5077842;28;20178;-67
2022/06/08 08:05:43;;;;;;;3.05;2.47;;;18.50;99.90;;;;;;5077576;28;20658;-67
2022/06/08 08:08:10;;;;;;;2.97;2.30;;;18.60;99.90;;;;;;5077522;28;20166;-67
2022/06/08 08:10:35;;;;;;;2.72;2.53;;;18.70;99.90;;;;;;5076014;28;20551;-67
2022/06/08 08:13:01;;;;;;;5.93;3.00;;;18.80;99.90;;;;;;5076384;28;20194;-68
2022/06/08 08:15:28;;;;;;;3.95;2.50;;;18.80;99.90;;;;;;5077135;28;20192;-67
2022/06/08 08:17:55;;;;;;;3.00;2.70;;;18.90;99.90;;;;;;5077697;28;20174;-67
2022/06/08 08:20:24;;;;;;;2.70;2.30;;;18.90;99.90;;;;;;5076866;28;20185;-67
2022/06/08 08:22:50;;;;;;;2.97;2.55;;;18.90;99.90;;;;;;5076854;28;20186;-67
2022/06/08 08:25:18;;;;;;;3.05;2.28;;;19.00;99.90;;;;;;5077050;28;20166;-67
2022/06/08 08:27:45;;;;;;;3.00;2.30;;;18.90;99.90;;;;;;5076863;28;20217;-67
2022/06/08 08:30:14;;;;;;;2.53;2.33;;;18.90;99.90;;;;;;5076758;28;20169;-67
2022/06/08 08:32:40;;;;;;;4.07;2.03;;;18.90;99.90;;;;;;5076834;28;20666;-68
2022/06/08 08:35:07;;;;;;;3.28;2.20;;;18.90;99.90;;;;;;5076811;28;20221;-68
2022/06/08 08:37:33;;;;;;;3.00;2.28;;;18.90;99.90;;;;;;5075408;28;20529;-68
2022/06/08 08:39:59;;;;;;;2.25;2.15;;;19.00;99.90;;;;;;5076834;28;20196;-68
2022/06/08 08:42:26;;;;;;;3.10;1.98;;;19.10;99.90;;;;;;5076558;28;20205;-68
2022/06/08 08:44:56;;;;;;;2.35;1.80;;;19.20;99.90;;;;;;5075488;28;20169;-66
2022/06/08 08:47:55;;;;;;;1.73;1.63;;;19.30;99.90;;;;;;5076121;28;20169;-66
2022/06/08 08:50:30;;;;;;;4.60;1.80;;;19.50;99.90;;;;;;5076601;28;20497;-65
2022/06/08 08:53:20;;;;;;;2.00;1.80;;;19.70;99.90;;;;;;5076180;28;20194;-66
2022/06/08 08:55:50;;;;;;;1.75;1.52;;;19.60;99.90;;;;;;5076059;28;20177;-66
2022/06/08 08:58:28;;;;;;;1.98;1.50;;;19.70;99.90;;;;;;5076059;28;20627;-65
2022/06/08 09:00:58;;;;;;;3.50;1.73;;;19.70;99.90;;;;;;5075892;28;20189;-65
2022/06/08 09:03:30;;;;;;;5.85;2.22;;;19.70;99.90;;;;;;5076177;28;20165;-65
2022/06/08 09:06:09;;;;;;;1.73;1.52;;;19.70;99.90;;;;;;5075875;28;20181;-67
2022/06/08 09:08:35;;;;;;;2.25;1.83;;;19.80;99.90;;;;;;5076438;28;20485;-67
2022/06/08 09:11:01;;;;;;;1.85;1.50;;;19.90;99.90;;;;;;5075197;28;20589;-66
2022/06/08 09:13:50;;;;;;;3.35;1.77;;;20.00;99.90;;;;;;5075367;28;20180;-65
2022/06/08 09:16:28;;;;;;;1.92;1.52;;;20.00;99.90;;;;;;5074147;28;20182;-64
2022/06/08 09:18:54;;;;;;;1.42;1.38;;;20.00;99.90;;;;;;5075557;28;20177;-63
2022/06/08 09:21:29;;;;;;;1.83;1.50;;;20.10;99.90;;;;;;5075378;28;20261;-63
2022/06/08 09:24:06;;;;;;;1.80;1.65;;;20.10;99.90;;;;;;5074229;28;20178;-68
2022/06/08 09:26:36;;;;;;;1.88;1.50;;;20.10;99.90;;;;;;5074301;28;20184;-68
2022/06/08 09:29:11;;;;;;;1.88;1.55;;;20.00;99.90;;;;;;5074145;28;20166;-68
2022/06/08 09:31:38;;;;;;;1.65;1.42;;;20.00;99.90;;;;;;5075073;28;20219;-68
2022/06/08 09:34:21;;;;;;;2.15;1.42;;;19.90;99.90;;;;;;5075527;28;20540;-68
2022/06/08 09:37:05;;;;;;;1.45;1.33;;;19.90;99.90;;;;;;5074057;28;20522;-68
2022/06/08 09:39:33;;;;;;;1.60;1.50;;;20.10;99.90;;;;;;5075204;28;20158;-68
2022/06/08 09:42:05;;;;;;;1.60;1.50;;;20.20;99.90;;;;;;5073680;28;20716;-68
2022/06/08 09:44:42;;;;;;;1.88;1.42;;;20.50;99.90;;;;;;5075074;28;20162;-68
2022/06/08 09:53:20;;;;;;;1.90;1.40;;;21.50;99.90;;;;;;5074835;28;20197;-68
2022/06/08 09:55:55;;;;;;;2.30;1.70;;;22.00;99.90;;;;;;5075187;28;20169;-68
2022/06/08 09:58:32;;;;;;;2.55;1.50;;;22.30;99.90;;;;;;5074775;28;20195;-68
2022/06/08 10:01:17;;;;;;;6.68;1.60;;;22.30;99.90;;;;;;5074609;28;20194;-68
2022/06/08 10:03:48;;;;;;;4.90;1.60;;;22.10;99.90;;;;;;5075108;28;20158;-69
2022/06/08 10:06:26;;;;;;;2.42;1.48;;;22.20;99.90;;;;;;5074955;28;20154;-68
2022/06/08 10:09:32;;;;;;;2.65;1.73;;;21.80;99.90;;;;;;5074675;28;20162;-68
2022/06/08 10:12:04;;;;;;;2.75;1.77;;;21.50;99.90;;;;;;5074474;28;20658;-69
2022/06/08 10:14:39;;;;;;;2.55;1.60;;;21.30;99.90;;;;;;5074465;28;20721;-68
2022/06/08 10:17:12;;;;;;;1.50;1.40;;;21.40;99.90;;;;;;5074579;28;20170;-69
2022/06/08 10:19:55;;;;;;;4.65;1.50;;;21.50;99.90;;;;;;5073213;28;20544;-68
2022/06/08 10:22:25;;;;;;;1.55;1.40;;;21.50;99.90;;;;;;5074141;28;20236;-68
2022/06/08 10:25:09;;;;;;;2.78;1.60;;;21.50;99.90;;;;;;5072559;28;20173;-68
2022/06/08 10:27:44;;;;;;;4.07;1.40;;;21.50;99.90;;;;;;5074348;28;20174;-69
2022/06/08 10:30:23;;;;;;;1.60;1.50;;;21.30;99.90;;;;;;5074596;28;20189;-68
2022/06/08 10:33:10;;;;;;;2.83;1.63;;;21.20;99.90;;;;;;5074122;28;20535;-69
2022/06/08 10:35:43;;;;;;;2.30;1.52;;;21.20;99.90;;;;;;5074100;28;20185;-68
2022/06/08 10:38:19;;;;;;;3.38;1.40;;;21.00;99.90;;;;;;5074305;28;20201;-68
2022/06/08 10:40:56;;;;;;;1.50;1.40;;;20.90;99.90;;;;;;5072530;28;20197;-68
2022/06/08 10:43:30;;;;;;;2.30;1.45;;;21.10;99.90;;;;;;5073966;28;20626;-65
2022/06/08 10:46:03;;;;;;;2.53;1.38;;;21.10;99.90;;;;;;5074026;28;20203;-66
2022/06/08 10:48:55;;;;;;;2.85;1.63;;;21.20;99.90;;;;;;5073915;28;20211;-66
2022/06/08 10:51:24;;;;;;;2.92;1.50;;;21.30;99.90;;;;;;5072980;28;20267;-65
2022/06/08 10:56:38;;;;;;;3.78;1.60;;;21.50;99.90;;;;;;5074271;28;20191;-67
2022/06/08 10:59:16;;;;;;;1.63;1.40;;;21.60;99.90;;;;;;5072452;28;20181;-64
2022/06/08 11:01:53;;;;;;;2.03;1.33;;;21.80;99.90;;;;;;5073546;28;20677;-66
2022/06/08 11:04:34;;;;;;;2.45;1.23;;;21.80;99.90;;;;;;5074053;28;20169;-65
2022/06/08 11:07:17;;;;;;;2.40;1.50;;;21.90;99.90;;;;;;5074270;28;20242;-66
2022/06/08 11:09:55;;;;;;;3.13;1.40;;;21.90;99.90;;;;;;5074326;28;20185;-68
2022/06/08 11:12:30;;;;;;;4.68;1.55;;;21.90;99.90;;;;;;5074478;28;20189;-68
2022/06/08 11:15:01;;;;;;;2.85;1.50;;;22.00;99.90;;;;;;5073985;28;20194;-68
2022/06/08 11:17:35;;;;;;;3.70;1.40;;;22.10;99.90;;;;;;5074047;28;20188;-68
2022/06/08 11:20:14;;;;;;;2.88;1.58;;;22.40;99.90;;;;;;5073612;28;20153;-68
2022/06/08 11:22:50;;;;;;;3.65;1.52;;;22.60;99.90;;;;;;5073423;28;20269;-66
2022/06/08 11:25:47;;;;;;;2.95;1.58;;;22.60;99.90;;;;;;5073778;28;20181;-66
2022/06/08 11:28:31;;;;;;;2.33;1.60;;;22.40;99.90;;;;;;5065258;28;20239;-66
2022/06/08 11:31:05;;;;;;;4.43;1.58;;;21.80;99.90;;;;;;5073134;28;20673;-66
2022/06/08 11:33:58;;;;;;;2.15;1.63;;;21.50;99.90;;;;;;5073683;28;20299;-66
2022/06/08 11:36:53;;;;;;;5.57;2.33;;;21.30;99.90;;;;;;5073502;28;20189;-65
2022/06/08 11:39:45;;;;;;;3.95;2.00;;;20.90;99.90;;;;;;5073862;28;20550;-66
2022/06/08 11:42:25;;;;;;;6.10;2.13;;;20.70;99.90;;;;;;5073471;28;20554;-67
2022/06/08 11:44:53;;;;;;;6.45;2.10;;;20.50;99.90;;;;;;5073243;28;20200;-68
2022/06/08 11:47:28;;;;;;;2.80;1.60;;;20.20;99.90;;;;;;5072963;28;20218;-65
2022/06/08 11:50:02;;;;;;;3.90;1.90;;;20.10;99.90;;;;;;5073410;28;20157;-65
2022/06/08 11:52:33;;;;;;;2.10;1.55;;;19.90;99.90;;;;;;5073096;28;20288;-69
2022/06/08 11:55:15;;;;;;;5.07;2.00;;;19.90;99.90;;;;;;5073816;28;20166;-68
2022/06/08 11:57:48;;;;;;;5.38;1.80;;;19.90;99.90;;;;;;5088824;28;20180;-66
2022/06/08 12:00:26;;;;;;;1.88;1.60;;;19.80;99.90;;;;;;5093429;28;20244;-65
2022/06/08 12:03:03;;;;;;;4.28;1.70;;;19.80;99.90;;;;;;5093004;28;20201;-66
2022/06/08 12:05:32;;;;;;;4.05;1.50;;;19.60;99.90;;;;;;5092072;28;20192;-66
2022/06/08 12:08:20;;;;;;;2.10;1.65;;;19.50;99.90;;;;;;5093254;28;20237;-65
2022/06/08 12:10:46;;;;;;;3.45;1.73;;;19.30;99.90;;;;;;5093528;28;20158;-65
2022/06/08 12:13:20;;;;;;;4.45;1.50;;;19.20;99.90;;;;;;5093177;28;20229;-67
2022/06/08 12:16:01;;;;;;;2.88;1.70;;;19.10;99.90;;;;;;5093055;28;20246;-67
2022/06/08 12:18:51;;;;;;;2.05;1.50;;;19.10;99.90;;;;;;5093816;28;20548;-67
2022/06/08 12:21:33;;;;;;;3.92;1.90;;;19.00;99.90;;;;;;5093121;28;20235;-67
2022/06/08 12:24:12;;;;;;;1.92;1.70;;;18.90;99.90;;;;;;5093555;28;20632;-67
2022/06/08 12:26:51;;;;;;;4.90;1.80;;;18.90;99.90;;;;;;5093032;28;20254;-68
2022/06/08 12:29:22;;;;;;;3.00;1.70;;;18.80;99.90;;;;;;5091828;28;20668;-67
2022/06/08 12:32:06;;;;;;;2.85;1.85;;;18.80;99.90;;;;;;5092808;28;20195;-67
2022/06/08 12:34:43;;;;;;;3.15;1.80;;;18.90;99.90;;;;;;5091859;28;20556;-67
2022/06/08 12:37:33;;;;;;;4.85;1.98;;;18.90;99.90;;;;;;5092956;28;20205;-67
2022/06/08 12:40:16;;;;;;;6.25;2.00;;;19.00;99.90;;;;;;5092983;28;20203;-67
2022/06/08 12:42:54;;;;;;;2.72;1.98;;;19.00;99.90;;;;;;5092756;28;20724;-67
2022/06/08 12:45:30;;;;;;;3.08;1.80;;;18.90;99.90;;;;;;5092946;28;20177;-67
2022/06/08 12:47:56;;;;;;;4.57;2.05;;;18.90;99.90;;;;;;5095322;28;20165;-67
2022/06/08 12:50:25;;;;;;;3.25;1.85;;;18.70;99.90;;;;;;5096864;28;20165;-67
2022/06/08 12:52:52;;;;;;;5.18;2.20;;;18.30;99.90;;;;;;5095244;28;20201;-67
2022/06/08 12:55:25;;;;;;;3.30;2.58;;;17.90;99.90;;;;;;5096959;28;20537;-67
2022/06/08 12:57:52;;;;;;;2.72;2.13;;;17.50;99.90;;;;;;5096550;28;20174;-66
2022/06/08 13:00:27;;;;;;;2.90;2.13;;;17.30;99.90;;;;;;5096464;28;20180;-67
2022/06/08 13:02:54;;;;;;;3.50;1.95;;;17.20;99.90;;;;;;5096186;28;20287;-68
2022/06/08 13:05:24;;;;;;;5.00;2.50;;;17.10;99.90;;;;;;5096385;28;20169;-67
2022/06/08 13:07:51;;;;;;;5.20;2.80;;;17.10;99.90;;;;;;5096876;28;20162;-67
2022/06/08 13:10:17;;;;;;;3.60;2.00;;;16.90;99.90;;;;;;5097203;28;20537;-66
2022/06/08 13:12:53;;;;;;;5.45;2.55;;;16.80;99.90;;;;;;5096112;28;20280;-66
2022/06/08 13:15:22;;;;;;;4.35;2.83;;;16.70;99.90;;;;;;5096075;28;20185;-67
2022/06/08 13:17:49;;;;;;;6.65;2.72;;;16.60;99.90;;;;;;5096016;28;20534;-66
2022/06/08 13:20:36;;;;;;;5.35;2.92;;;16.60;99.90;;;;;;5096047;28;20183;-66